EW8142 Weather Reports


Display with metric or nautical units.
time (UTC)temp
F
wind
direction
speed
MPH
gust
MPH
rain 1hr
in
rain 24hr
in
rain mn
in
humidity
%
barometer
mb
20210622043020 64 0.0 0.0 0.00 0.00 0.00 95 1001.1
20210622041538 64 0.0 0.0 0.00 0.00 0.00 95 1001.1
20210622040036 64 0.0 0.0 0.00 0.00 0.00 95 1001.4
20210622034551 64 0.0 0.0 0.00 0.00 0.00 95 1001.4
20210622033040 64 0.0 0.0 0.00 0.00 0.00 95 1001.5
20210622031515 64 0.0 0.0 0.00 0.00 0.00 95 1001.5
20210622030015 64 360 0.0 0.0 0.00 0.00 0.00 95 1001.6
20210622024539 63 0.0 0.0 0.00 0.00 0.00 95 1001.6
20210622023013 63 360 0.0 0.0 0.00 0.00 0.00 95 1001.8
20210622021514 63 0.0 0.0 0.00 0.00 0.00 95 1002.2
20210622014507 64 360 0.0 0.0 0.00 0.00 0.00 95 1002.0
20210622013005 63 360 0.0 0.0 0.00 0.00 0.00 95 1001.8
20210622011506 64 0.0 0.0 0.00 0.00 0.00 95 1001.9
20210622010007 64 0.0 0.0 0.00 0.00 0.00 95 1001.9
20210622004505 64 0.0 0.0 0.00 0.00 0.00 94 1001.5
20210622001740 64 0.0 0.0 0.00 0.00 0.00 94 1001.1
20210622000107 64 0.0 0.0 0.00 0.00 0.00 94 1001.3
20210621234818 64 0.0 0.0 0.00 0.00 0.00 94 1001.6
20210621233200 63 0.0 0.0 0.00 0.00 0.00 93 1001.7
20210621231622 64 360 0.0 0.0 0.00 0.00 0.00 93 1001.8
20210621230139 64 360 0.0 0.0 0.00 0.00 0.00 93 1001.9
20210621224650 65 360 0.0 0.0 0.00 0.00 0.00 93 1001.9
20210621223209 65 360 0.0 0.0 0.00 0.00 0.00 92 1001.9
20210621221633 66 360 0.0 0.0 0.00 0.00 0.00 91 1001.8
20210621220123 67 0.0 0.0 0.00 0.00 0.00 91 1002.2
20210621214545 67 0.0 0.0 0.00 0.00 0.00 91 1002.2
20210621213115 68 360 0.0 0.0 0.00 0.00 0.00 91 1002.1
20210621211539 67 0.0 0.0 0.00 0.00 0.00 91 1002.5
20210621210052 67 360 0.0 0.0 0.00 0.00 0.00 91 1002.5
20210621204555 67 0.0 0.0 0.00 0.00 0.00 91 1002.6
20210621203042 67 0.0 0.0 0.00 0.00 0.00 91 1003.2
20210621201522 67 0.0 0.0 0.00 0.00 0.00 91 1003.5
20210621200040 67 0.0 0.0 0.00 0.00 0.00 91 1003.8
20210621194519 67 0.0 0.0 0.00 0.00 0.00 90 1003.9
20210621193015 68 0.0 0.0 0.00 0.00 0.00 88 1003.9
20210621191506 69 0.0 0.0 0.00 0.00 0.00 86 1004.1
20210621190139 71 0.0 0.0 0.00 0.00 0.00 83 1004.2
20210621184652 71 0.0 0.0 0.00 0.00 0.00 83 1004.3
20210621183241 74 0.0 0.0 0.00 0.00 0.00 81 1004.5
20210621181638 76 360 0.0 0.0 0.00 0.00 0.00 77 1004.5
20210621180125 78 360 0.0 0.0 0.00 0.00 0.00 75 1004.4
20210621174651 78 360 0.0 0.0 0.00 0.00 0.00 73 1004.5
20210621173127 77 360 0.0 0.0 0.00 0.00 0.00 76 1004.7
20210621171622 77 0.0 0.0 0.00 0.00 0.00 78 1005.0
20210621170047 77 360 0.0 0.0 0.00 0.00 0.00 78 1005.3
20210621164622 75 360 0.0 0.0 0.00 0.00 0.00 82 1005.6
20210621163202 75 360 0.0 0.0 0.00 0.00 0.00 80 1005.7
20210621161604 75 360 0.0 0.0 0.00 0.00 0.00 79 1005.8
20210621160057 75 0.0 0.0 0.00 0.00 0.00 79 1005.9
20210621154600 73 0.0 0.0 0.00 0.00 0.00 81 1006.0
20210621153101 76 0.0 0.0 0.00 0.00 0.00 77 1006.3
20210621151605 77 0.0 0.0 0.00 0.00 0.00 75 1006.2
20210621150047 77 0.0 0.0 0.00 0.00 0.00 78 1006.1
20210621144556 77 360 0.0 0.0 0.00 0.00 0.00 78 1006.5
20210621143122 75 0.0 0.0 0.00 0.00 0.00 79 1006.3
20210621141527 71 0.0 0.0 0.00 0.00 0.00 85 1006.6
20210621140100 70 360 0.0 0.0 0.00 0.00 0.00 84 1006.8
20210621134540 70 360 0.0 0.0 0.00 0.00 0.00 86 1006.9
20210621133054 69 360 0.0 0.0 0.00 0.00 0.00 86 1006.9
20210621131524 69 360 0.0 0.0 0.00 0.00 0.00 84 1007.0
20210621130029 71 0.0 0.0 0.00 0.00 0.00 83 1007.0
20210621124528 72 0.0 0.0 0.00 0.00 0.00 81 1006.8
20210621123049 71 0.0 0.0 0.00 0.00 0.00 84 1006.5
20210621121534 69 360 0.0 0.0 0.00 0.00 0.00 83 1006.6
20210621120026 68 360 0.0 0.0 0.00 0.00 0.00 88 1006.6
20210621114608 66 0.0 0.0 0.00 0.00 0.00 89 1006.3
20210621113022 64 0.0 0.0 0.00 0.00 0.00 92 1006.4
20210621111508 63 0.0 0.0 0.00 0.00 0.00 93 1006.4
20210621110008 61 360 0.0 0.0 0.00 0.00 0.00 95 1006.2
20210621104509 59 0.0 0.0 0.00 0.00 0.00 95 1006.2
20210621103036 58 360 0.0 0.0 0.00 0.00 0.00 95 1006.2
20210621101507 57 0.0 0.0 0.00 0.00 0.00 95 1006.1
20210621100017 56 0.0 0.0 0.00 0.00 0.00 95 1006.1
20210621094513 56 0.0 0.0 0.00 0.00 0.00 95 1006.2
20210621093010 56 0.0 0.0 0.00 0.00 0.00 95 1006.2
20210621091509 56 360 0.0 0.0 0.00 0.00 0.00 94 1006.1
20210621090008 56 360 0.0 0.0 0.00 0.00 0.00 94 1006.0
20210621084505 56 360 0.0 0.0 0.00 0.00 0.00 94 1006.1
20210621083002 56 360 0.0 0.0 0.00 0.00 0.00 94 1006.0
20210621081842 57 360 0.0 0.0 0.00 0.00 0.00 94 1006.1
20210621080226 57 0.0 0.0 0.00 0.00 0.00 94 1006.0
20210621074716 57 360 0.0 0.0 0.00 0.00 0.00 93 1005.9
20210621073151 58 360 0.0 0.0 0.00 0.00 0.00 93 1005.9
20210621071620 58 360 0.0 0.0 0.00 0.00 0.00 93 1006.0
20210621070038 58 360 0.0 0.0 0.00 0.00 0.00 93 1006.0
20210621064527 58 0.0 0.0 0.00 0.00 0.00 93 1006.0
20210621063125 58 360 0.0 0.0 0.00 0.00 0.00 93 1006.1
20210621061527 59 0.0 0.0 0.00 0.00 0.00 93 1006.1
20210621060033 59 0.0 0.0 0.00 0.00 0.00 93 1006.0
20210621054520 59 0.0 0.0 0.00 0.00 0.00 93 1005.9
20210621053011 59 360 0.0 0.0 0.00 0.00 0.00 92 1005.9
20210621051543 59 0.0 0.0 0.00 0.00 0.00 92 1005.9
20210621050012 59 0.0 0.0 0.00 0.00 0.00 91 1006.0
20210621044504 60 0.0 0.0 0.00 0.00 0.00 91 1006.1